Terminal Aerodrome Forecast
Issued by NWS

Home | Current Version | Previous Version | Text Only | Print | Product List | Glossary On
Versions: 1 2 3 4 5 6 7 8 9 10 11 12 13 14 15 16 17 18 19 20 21
315
FTUS43 KABR 191017 AAD
TAFATY
TAF AMD
KATY 191017Z 1910/2006 36021G25KT P6SM VCSH BKN010 OVC060
      TEMPO 1910/1912 5SM -SN BLSN OVC020
     FM191200 02017G25KT P6SM VCSH OVC030
     FM191600 02017G24KT P6SM OVC030
     FM192100 03017G24KT 1 1/2SM -SN BR BLSN OVC015=

USA.gov is the U.S. government's official web portal to all federal, state and local government web resources and services.